Latest Coastal Weather Observations for Coconut Island

IDQ60701

Issued at 8:42 am EST Wednesday 4 March 2015 (issued every 10 minutes, with the page automatically refreshed every 10 minutes)

About coastal observations | Map of coastal stations | Coastal observations for QLD | Marine services | Other Formats
Station Details ID: 027054 Name: COCONUT ISLAND Lat: -10.05 Lon: 143.07 Height: 3.5 m
Data from the previous 72 hours. | See also: Recent months at Coconut Island
Date/Time
EST
Temp

°C
Wind Pressure Rain
since 9am
mm
Weather Cloud Vis
km
Sea
Height
m
Swell
Dir
 
Speed
knots
Gust
knots
hPa Trend Height
m
Period
s
Dir
04/08:30am 28.8 E 4 5 1008.9 - 0.4 - - - - - - -
04/08:00am 26.4 ENE 3 5 1008.6 - 0.4 - - - - - - -
04/07:30am 25.9 ENE 3 5 1008.3 - 0.4 - - - - - - -
04/07:00am 25.8 E 3 5 1008.0 - 0.4 - - - - - - -
04/06:30am 25.6 E 3 5 1007.5 - 0.4 - - - - - - -
04/06:00am 25.7 E 4 5 1007.2 - 0.4 - - - - - - -
04/05:30am 26.0 E 3 5 1007.1 - 0.4 - - - - - - -
04/05:00am 25.9 E 3 5 1006.8 - 0.4 - - - - - - -
04/04:30am 25.9 E 3 5 1006.7 - 0.4 - - - - - - -
04/04:00am 26.0 E 3 5 1006.5 - 0.4 - - - - - - -
04/03:30am 25.7 E 3 5 1006.4 - 0.4 - - - - - - -
04/03:00am 25.7 E 3 4 1006.6 - 0.4 - - - - - - -
04/02:30am 26.0 ESE 2 5 1006.8 - 0.4 - - - - - - -
04/02:00am 26.1 SE 1 4 1007.1 - 0.4 - - - - - - -
04/01:30am 26.4 ESE 3 5 1007.5 - 0.4 - - - - - - -
04/01:00am 26.4 SE 2 5 1007.7 - 0.4 - - - - - - -
04/12:30am 26.5 ESE 3 6 1008.2 - 0.4 - - - - - - -
04/12:00am 26.7 ESE 3 6 1008.6 - 0.4 - - - - - - -
 
Date/Time
EST
Temp

°C
Wind Pressure Rain
since 9am
mm
Weather Cloud Vis
km
Sea
Height
m
Swell
Dir
 
Speed
knots
Gust
knots
hPa Trend Height
m
Period
s
Dir
03/11:30pm 26.9 ESE 4 7 1008.6 - 0.4 - - - - - - -
03/11:00pm 26.7 SE 3 6 1008.4 - 0.4 - - - - - - -
03/10:30pm 26.6 ESE 2 5 1008.6 - 0.4 - - - - - - -
03/10:00pm 26.8 ESE 3 6 1008.5 - 0.4 - - - - - - -
03/09:30pm 27.0 ESE 2 5 1008.0 - 0.4 - - - - - - -
03/09:00pm 27.1 ESE 3 6 1008.0 - 0.4 - - - - - - -
03/08:30pm 27.2 E 3 5 1007.8 - 0.4 - - - - - - -
03/08:00pm 27.0 ESE 3 6 1007.3 - 0.4 - - - - - - -
03/07:30pm 27.2 SE 2 4 1006.8 - 0.4 - - - - - - -
03/07:00pm 27.9 SSE 1 3 1006.5 - 0.4 - - - - - - -
03/06:30pm 28.8 SE 1 2 1006.1 - 0.4 - - - - - - -
03/06:00pm 30.0 SSE 1 2 1005.8 - 0.4 - - - - - - -
03/05:30pm 30.6 SSE 1 3 1005.8 - 0.4 - - - - - - -
03/05:00pm 30.6 SSE 1 2 1005.7 - 0.4 - - - - - - -
03/04:30pm 31.0 SSE 1 3 1005.6 - 0.4 - - - - - - -
03/04:00pm 30.8 SSE 1 2 1005.5 - 0.4 - - - - - - -
03/03:30pm 31.4 S 1 3 1005.5 - 0.4 - - - - - - -
03/03:00pm 31.4 SSE 1 2 1005.4 - 0.4 - - - - - - -
03/02:30pm 31.5 S 1 2 1005.8 - 0.4 - - - - - - -
03/02:00pm 30.6 S 1 2 1006.3 - 0.4 - - - - - - -
03/01:30pm 30.9 SSW 2 3 1006.8 - 0.4 - - - - - - -
03/01:00pm 29.8 NNW 2 4 1007.3 - 0.4 - - - - - - -
03/12:30pm 30.0 NW 3 5 1007.9 - 0.4 - - - - - - -
03/12:00pm 29.6 NW 3 4 1008.4 - 0.4 - - - - - - -
03/11:30am 28.9 NNW 4 5 1009.0 - 0.4 - - - - - - -
03/11:00am 28.5 NNW 6 7 1009.5 - 0.4 - - - - - - -
03/10:30am 27.0 N 5 7 1009.9 - 0.4 - - - - - - -
03/10:00am 26.9 NW 7 11 1009.9 - 0.2 - - - - - - -
03/09:30am 27.5 WNW 8 14 1009.5 - 0.0 - - - - - - -
03/09:00am 28.0 CALM 0 2 1009.5 - 0.0 - - - - - - -
03/08:30am 27.5 CALM 0 0 1009.1 - 0.0 - - - - - - -
03/08:00am 27.2 CALM 0 0 1008.6 - 0.0 - - - - - - -
03/07:30am 26.7 CALM 0 0 1008.1 - 0.0 - - - - - - -
03/07:00am 26.3 NE 1 2 1007.8 - 0.0 - - - - - - -
03/06:30am 26.0 NE 2 3 1007.6 - 0.0 - - - - - - -
03/06:00am 26.0 CALM 0 0 1007.1 - 0.0 - - - - - - -
03/05:30am 26.2 CALM 0 1 1006.7 - 0.0 - - - - - - -
03/05:00am 25.8 NE 1 2 1006.5 - 0.0 - - - - - - -
03/04:30am 25.9 E 1 2 1006.3 - 0.0 - - - - - - -
03/04:00am 26.4 NE 1 2 1006.1 - 0.0 - - - - - - -
03/03:30am 26.4 NE 1 2 1006.2 - 0.0 - - - - - - -
03/03:00am 26.2 E 1 1 1006.3 - 0.0 - - - - - - -
03/02:30am 25.9 E 1 2 1006.4 - 0.0 - - - - - - -
03/02:00am 26.0 E 1 2 1006.7 - 0.0 - - - - - - -
03/01:30am 26.1 E 1 2 1007.2 - 0.0 - - - - - - -
03/01:00am 26.3 ESE 1 3 1007.2 - 0.0 - - - - - - -
03/12:30am 26.2 E 1 2 1007.4 - 0.0 - - - - - - -
03/12:00am 26.2 CALM 0 1 1007.6 - 0.0 - - - - - - -
 
Date/Time
EST
Temp

°C
Wind Pressure Rain
since 9am
mm
Weather Cloud Vis
km
Sea
Height
m
Swell
Dir
 
Speed
knots
Gust
knots
hPa Trend Height
m
Period
s
Dir
02/11:30pm 26.2 CALM 0 0 1007.7 - 0.0 - - - - - - -
02/11:00pm 26.3 CALM 0 0 1008.0 - 0.0 - - - - - - -
02/10:30pm 26.4 CALM 0 2 1007.9 - 0.0 - - - - - - -
02/10:00pm 26.6 CALM 0 0 1007.8 - 0.0 - - - - - - -
02/09:30pm 26.8 CALM 0 0 1007.6 - 0.0 - - - - - - -
02/09:00pm 26.8 CALM 0 0 1007.0 - 0.0 - - - - - - -
02/08:30pm 26.8 CALM 0 0 1006.6 - 0.0 - - - - - - -
02/08:00pm 27.3 WSW 1 2 1006.4 - 0.0 - - - - - - -
02/07:30pm 27.8 W 2 3 1006.1 - 0.0 - - - - - - -
02/07:00pm 28.1 WSW 2 5 1005.6 - 0.0 - - - - - - -
02/06:30pm 28.9 SW 2 4 1005.3 - 0.0 - - - - - - -
02/06:00pm 30.0 SW 2 5 1005.1 - 0.0 - - - - - - -
02/05:30pm 30.4 WNW 3 4 1004.9 - 0.0 - - - - - - -
02/05:00pm 30.3 WNW 4 6 1004.7 - 0.0 - - - - - - -
02/04:30pm 30.6 WNW 4 7 1004.9 - 0.0 - - - - - - -
02/04:00pm 30.5 NW 6 9 1004.8 - 0.0 - - - - - - -
02/03:30pm 30.6 NW 7 9 1004.9 - 0.0 - - - - - - -
02/03:00pm 30.8 NW 7 11 1005.2 - 0.0 - - - - - - -
02/02:30pm 30.7 NW 7 10 1005.6 - 0.0 - - - - - - -
02/02:00pm 30.6 NW 7 10 1006.1 - 0.0 - - - - - - -
02/01:30pm 30.7 NW 8 12 1006.6 - 0.0 - - - - - - -
02/01:00pm 30.4 NNW 9 13 1007.0 - 0.0 - - - - - - -
02/12:30pm 30.4 NNW 8 11 1007.5 - 0.0 - - - - - - -
02/12:00pm 30.6 NNW 8 12 1007.9 - 0.0 - - - - - - -
02/11:30am 29.9 NNW 10 13 1008.4 - 0.0 - - - - - - -
02/11:00am 30.5 NNW 8 10 1008.7 - 0.0 - - - - - - -
02/10:30am 29.8 NNW 8 10 1009.0 - 0.0 - - - - - - -
02/10:00am 30.1 NNW 8 10 1009.1 - 0.0 - - - - - - -
02/09:30am 28.4 NNW 8 10 1008.9 - 0.0 - - - - - - -
02/09:00am 28.2 NNW 8 10 1008.7 - 8.2 - - - - - - -
02/08:30am 28.6 NNW 9 11 1008.4 - 8.2 - - - - - - -
02/08:00am 28.3 NNW 9 12 1008.0 - 8.2 - - - - - - -
02/07:30am 27.5 NNW 8 11 1007.9 - 8.2 - - - - - - -
02/07:00am 27.1 NNW 10 12 1007.8 - 8.2 - - - - - - -
02/06:30am 26.9 NNW 8 11 1007.5 - 8.2 - - - - - - -
02/06:00am 26.9 NNW 6 8 1007.3 - 8.2 - - - - - - -
02/05:30am 26.9 NNW 6 9 1007.2 - 8.2 - - - - - - -
02/05:00am 26.7 NNW 8 10 1006.7 - 8.2 - - - - - - -
02/04:30am 26.7 NNW 8 10 1006.6 - 8.2 - - - - - - -
02/04:00am 26.6 NNW 8 10 1006.6 - 8.2 - - - - - - -
02/03:30am 26.5 NNW 8 11 1006.9 - 8.2 - - - - - - -
02/03:00am 26.1 N 7 10 1006.8 - 8.0 Rain - - - - - -
02/02:30am 26.0 N 7 10 1007.1 - 7.6 - - - - - - -
02/02:00am 25.8 N 9 12 1007.4 - 7.4 - - - - - - -
02/01:30am 25.1 N 7 11 1007.6 - 7.4 - - - - - - -
02/01:00am 25.2 N 7 10 1008.1 - 7.2 - - - - - - -
02/12:30am 24.6 N 7 10 1008.4 - 6.8 - - - - - - -
02/12:00am 24.7 NNW 13 18 1008.5 - 6.0 Rain - - - - - -
 
Date/Time
EST
Temp

°C
Wind Pressure Rain
since 9am
mm
Weather Cloud Vis
km
Sea
Height
m
Swell
Dir
 
Speed
knots
Gust
knots
hPa Trend Height
m
Period
s
Dir
01/11:30pm 24.8 NNW 18 23 1008.7 - 2.6 - - - - - - -
01/11:18pm 26.6 NNE 6 20 1008.8 - 0.0 - - - - - - -
01/11:00pm 27.2 E 2 3 1007.9 - 0.0 - - - - - - -
01/10:30pm 27.3 ESE 1 3 1008.1 - 0.0 - - - - - - -
01/10:00pm 26.8 CALM 0 0 1007.8 - 0.0 - - - - - - -
01/09:30pm 26.8 CALM 0 0 1007.4 - 0.0 - - - - - - -
01/09:00pm 27.1 CALM 0 1 1007.1 - 0.0 - - - - - - -
01/08:30pm 27.1 CALM 0 1 1006.9 - 0.0 - - - - - - -
01/08:00pm 27.1 CALM 0 0 1006.8 - 0.0 - - - - - - -
01/07:30pm 27.4 CALM 0 0 1006.3 - 0.0 - - - - - - -
01/07:00pm 27.9 SSW 1 2 1006.0 - 0.0 - - - - - - -
01/06:30pm 28.9 SSW 1 3 1005.8 - 0.0 - - - - - - -
01/06:00pm 29.7 SW 2 3 1005.4 - 0.0 - - - - - - -
01/05:30pm 30.0 W 3 6 1004.9 - 0.0 - - - - - - -
01/05:00pm 30.3 WNW 4 6 1004.6 - 0.0 - - - - - - -
01/04:30pm 30.5 WNW 5 7 1004.3 - 0.0 - - - - - - -
01/04:00pm 30.6 NW 6 8 1004.4 - 0.0 - - - - - - -
01/03:30pm 30.8 WNW 6 9 1004.7 - 0.0 - - - - - - -
01/03:00pm 30.2 NW 7 10 1005.0 - 0.0 - - - - - - -
01/02:30pm 29.9 NW 7 10 1005.4 - 0.0 - - - - - - -
01/02:00pm 30.2 NW 7 11 1005.9 - 0.0 - - - - - - -
01/01:30pm 30.3 NW 8 13 1006.4 - 0.0 - - - - - - -
01/01:00pm 30.0 NW 8 11 1006.8 - 0.0 - - - - - - -
01/12:30pm 30.5 NNW 10 13 1007.4 - 0.0 - - - - - - -
01/12:00pm 30.4 NNW 10 12 1007.8 - 0.0 - - - - - - -
01/11:30am 29.7 NNW 8 11 1008.3 - 0.0 - - - - - - -
01/11:00am 29.5 NW 8 11 1008.5 - 0.0 - - - - - - -
01/10:30am 29.5 NNW 10 13 1008.8 - 0.0 - - - - - - -
01/10:00am 28.2 NNW 11 15 1009.0 - 0.0 - - - - - - -
01/09:30am 27.9 NNW 9 12 1009.2 - 0.0 - - - - - - -
01/09:00am 27.4 N 10 14 1009.3 - 16.4 - - - - - - -

Other Formats:

Comma delimited format used in spreadsheet applications
http://www.bom.gov.au/fwo/IDQ60701/IDQ60701.94182.axf

JavaScript Object Notation format (JSON) in row-major order
http://www.bom.gov.au/fwo/IDQ60701/IDQ60701.94182.json